createdAt,value
2019-02-27T00:00:20.193Z,40.15
2019-02-27T00:02:48.596Z,39.18
2019-02-27T00:05:16.996Z,40.55
2019-02-27T00:07:45.674Z,41.05
2019-02-27T00:10:14.357Z,41.15
2019-02-27T00:12:42.759Z,40.95
2019-02-27T00:15:11.257Z,39.00
2019-02-27T00:17:39.654Z,39.03
2019-02-27T00:20:08.201Z,40.60
2019-02-27T00:22:36.609Z,41.00
2019-02-27T00:25:05.572Z,42.23
2019-02-27T00:27:33.984Z,41.55
2019-02-27T00:30:05.026Z,39.65
2019-02-27T00:32:32.952Z,40.17
2019-02-27T00:35:01.350Z,39.60
2019-02-27T00:37:30.115Z,39.03
2019-02-27T00:39:58.506Z,38.55
2019-02-27T00:42:33.468Z,39.78
2019-02-27T00:44:57.605Z,42.17
2019-02-27T00:47:26.007Z,38.38
2019-02-27T00:49:54.423Z,39.80
2019-02-27T00:52:22.829Z,38.85
2019-02-27T00:54:54.194Z,40.23
2019-02-27T00:57:22.891Z,30.43
2019-02-27T00:59:51.564Z,38.45
2019-02-27T01:02:20.778Z,39.05
2019-02-27T01:04:49.546Z,38.13
2019-02-27T01:07:20.682Z,38.30
2019-02-27T01:09:48.477Z,38.30
2019-02-27T01:12:16.870Z,39.70
2019-02-27T01:14:45.290Z,39.53
2019-02-27T01:17:13.703Z,38.23
2019-02-27T01:19:43.020Z,38.75
2019-02-27T01:22:11.477Z,38.75
2019-02-27T01:24:39.887Z,37.42
2019-02-27T01:27:08.284Z,38.28
2019-02-27T01:29:36.701Z,36.33
2019-02-27T01:32:05.171Z,38.83
2019-02-27T01:34:33.586Z,38.50
2019-02-27T01:37:02.270Z,38.55
2019-02-27T01:39:30.674Z,38.35
2019-02-27T01:41:59.435Z,37.38
2019-02-27T01:44:28.123Z,38.60
2019-02-27T01:47:01.869Z,37.93
2019-02-27T01:49:26.662Z,37.55
2019-02-27T01:51:55.061Z,37.23
2019-02-27T01:54:23.473Z,37.93
2019-02-27T01:56:52.160Z,36.10
2019-02-27T01:59:20.569Z,37.23
2019-02-27T02:01:48.973Z,36.42
2019-02-27T02:04:19.980Z,36.30
2019-02-27T02:06:47.517Z,34.43
2019-02-27T02:09:33.718Z,34.98
2019-02-27T02:12:08.808Z,36.63
2019-02-27T02:15:02.216Z,36.45
2019-02-27T02:17:50.093Z,37.67
2019-02-27T02:20:40.917Z,36.13
2019-02-27T02:23:14.931Z,36.00
2019-02-27T02:26:05.833Z,36.95
2019-02-27T02:28:49.292Z,37.90
2019-02-27T02:31:26.244Z,36.65
2019-02-27T02:34:12.775Z,35.90
2019-02-27T02:36:50.179Z,35.78
2019-02-27T02:39:24.258Z,35.33
2019-02-27T02:42:12.453Z,36.30
2019-02-27T02:44:49.434Z,35.83
2019-02-27T02:47:32.672Z,35.73
2019-02-27T02:50:17.426Z,36.13
2019-02-27T02:52:45.607Z,36.48
2019-02-27T02:55:39.900Z,35.23
2019-02-27T02:58:19.931Z,33.95
2019-02-27T03:01:00.210Z,35.03
2019-02-27T03:03:43.670Z,35.88
2019-02-27T03:06:17.957Z,36.20
2019-02-27T03:08:54.951Z,34.55
2019-02-27T03:11:37.736Z,35.23
2019-02-27T03:14:09.191Z,37.03
2019-02-27T03:17:17.917Z,35.98
2019-02-27T03:19:56.932Z,34.18
2019-02-27T03:22:41.653Z,35.15
2019-02-27T03:25:19.577Z,33.95
2019-02-27T03:28:07.442Z,35.30
2019-02-27T03:30:44.505Z,35.15
2019-02-27T03:33:24.684Z,34.05
2019-02-27T03:36:14.867Z,35.33
2019-02-27T03:39:10.673Z,32.98
2019-02-27T03:42:02.032Z,33.25
2019-02-27T03:44:39.600Z,35.50
2019-02-27T03:47:26.317Z,34.10
2019-02-27T03:50:23.491Z,32.33
2019-02-27T03:53:00.983Z,34.10
2019-02-27T03:55:44.123Z,35.40
2019-02-27T03:58:21.467Z,34.13
2019-02-27T04:01:08.037Z,34.00
2019-02-27T04:03:45.278Z,33.58
2019-02-27T04:06:34.747Z,33.18
2019-02-27T04:09:04.807Z,34.50
2019-02-27T04:11:33.205Z,34.78
2019-02-27T04:14:05.058Z,34.65
2019-02-27T04:16:32.458Z,34.45
2019-02-27T04:19:04.568Z,34.55
2019-02-27T04:21:31.257Z,34.38
2019-02-27T04:23:59.673Z,34.88
2019-02-27T04:26:28.425Z,33.30
2019-02-27T04:28:57.116Z,32.85
2019-02-27T04:31:29.622Z,33.18
2019-02-27T04:33:59.844Z,34.63
2019-02-27T04:36:25.805Z,34.85
2019-02-27T04:38:54.212Z,34.73
2019-02-27T04:41:22.629Z,34.38
2019-02-27T04:43:51.025Z,33.80
2019-02-27T04:46:21.706Z,32.30
2019-02-27T04:48:50.179Z,34.60
2019-02-27T04:51:18.586Z,35.05
2019-02-27T04:53:46.988Z,35.03
2019-02-27T04:56:15.406Z,33.98
2019-02-27T04:58:43.806Z,36.17
2019-02-27T05:01:12.493Z,35.95
2019-02-27T05:03:40.893Z,35.40
2019-02-27T05:06:09.303Z,37.00
2019-02-27T05:08:38.025Z,36.45
2019-02-27T05:11:06.727Z,35.38
2019-02-27T05:13:35.126Z,36.20
2019-02-27T05:16:03.541Z,35.40
2019-02-27T05:18:32.261Z,34.75
2019-02-27T05:21:00.714Z,33.95
2019-02-27T05:23:30.930Z,35.95
2019-02-27T05:25:59.856Z,36.75
2019-02-27T05:28:28.543Z,36.10
2019-02-27T05:30:57.224Z,36.85
2019-02-27T05:33:25.632Z,36.80
2019-02-27T05:35:57.023Z,37.30
2019-02-27T05:38:24.409Z,37.08
2019-02-27T05:40:53.095Z,36.48
2019-02-27T05:43:21.777Z,37.30
2019-02-27T05:45:50.203Z,36.17
2019-02-27T05:48:20.018Z,36.63
2019-02-27T05:50:48.738Z,36.45
2019-02-27T05:53:17.149Z,36.85
2019-02-27T05:55:45.568Z,38.15
2019-02-27T05:58:14.305Z,36.65
2019-02-27T06:00:42.704Z,37.90
2019-02-27T06:03:11.124Z,37.90
2019-02-27T06:05:39.528Z,35.23
2019-02-27T06:08:07.944Z,37.88
2019-02-27T06:10:36.348Z,38.40
2019-02-27T06:13:04.768Z,36.13
2019-02-27T06:15:33.167Z,37.83
2019-02-27T06:18:01.954Z,35.95
2019-02-27T06:20:30.353Z,35.15
2019-02-27T06:22:58.767Z,36.50
2019-02-27T06:25:27.165Z,36.38
2019-02-27T06:27:55.873Z,36.15
2019-02-27T06:30:24.281Z,37.60
2019-02-27T06:32:52.703Z,36.30
2019-02-27T06:35:21.426Z,36.03
2019-02-27T06:37:50.744Z,35.20
2019-02-27T06:40:20.139Z,40.28
2019-02-27T06:42:51.329Z,38.42
2019-02-27T06:45:18.924Z,35.88
2019-02-27T06:47:47.340Z,35.10
2019-02-27T06:50:16.690Z,36.93
2019-02-27T06:52:45.509Z,38.17
2019-02-27T06:55:14.842Z,39.10
2019-02-27T06:57:43.326Z,36.65
2019-02-27T07:00:14.846Z,37.25
2019-02-27T07:02:43.301Z,36.93
2019-02-27T07:05:13.490Z,35.45
2019-02-27T07:07:42.144Z,37.17
2019-02-27T07:10:13.677Z,39.10
2019-02-27T07:12:42.091Z,39.80
2019-02-27T07:15:21.039Z,37.33
2019-02-27T07:17:49.876Z,37.80
2019-02-27T07:20:18.348Z,39.18
2019-02-27T07:22:46.841Z,37.55
2019-02-27T07:25:16.686Z,35.45
2019-02-27T07:27:45.101Z,37.55
2019-02-27T07:30:18.028Z,34.73
2019-02-27T07:32:46.435Z,35.35
2019-02-27T07:35:15.686Z,34.40
2019-02-27T07:37:47.170Z,35.48
2019-02-27T07:40:18.546Z,33.18
2019-02-27T07:42:46.952Z,31.70
2019-02-27T07:45:18.045Z,33.83
2019-02-27T07:47:46.806Z,35.03
2019-02-27T07:50:17.324Z,33.55
2019-02-27T07:52:45.822Z,32.85
2019-02-27T07:55:21.929Z,31.82
2019-02-27T07:57:48.581Z,31.30
2019-02-27T08:00:23.572Z,30.92
2019-02-27T08:02:51.968Z,29.18
2019-02-27T08:05:20.719Z,29.35
2019-02-27T08:07:49.926Z,27.67
2019-02-27T08:10:20.594Z,29.23
2019-02-27T08:12:48.994Z,28.05
2019-02-27T08:15:18.764Z,28.92
2019-02-27T08:17:47.281Z,26.62
2019-02-27T08:20:20.111Z,27.60
2019-02-27T08:22:46.757Z,25.85
2019-02-27T08:25:16.348Z,25.25
2019-02-27T08:27:44.833Z,25.57
2019-02-27T08:30:24.098Z,25.05
2019-02-27T08:32:52.871Z,25.32
2019-02-27T08:35:21.543Z,23.85
2019-02-27T08:37:50.240Z,25.17
2019-02-27T08:40:18.653Z,24.60
2019-02-27T08:42:47.301Z,24.50
2019-02-27T08:45:20.125Z,24.55
2019-02-27T08:47:48.379Z,24.55
